createdAt,value
2019-03-12T00:01:01.046Z,99045.39
2019-03-12T00:03:32.647Z,99044.56
2019-03-12T00:06:05.280Z,99048.27
2019-03-12T00:08:36.842Z,99054.46
2019-03-12T00:11:08.377Z,99046.69
2019-03-12T00:13:39.919Z,99045.33
2019-03-12T00:16:15.087Z,99054.75
2019-03-12T00:18:46.765Z,99054.46
2019-03-12T00:21:18.311Z,99062.64
2019-03-12T00:23:52.474Z,99062.23
2019-03-12T00:26:24.021Z,99060.45
2019-03-12T00:29:01.646Z,99064.83
2019-03-12T00:31:33.217Z,99070.94
2019-03-12T00:34:14.781Z,99066.75
2019-03-12T00:36:48.812Z,99082.36
2019-03-12T00:39:24.691Z,99085.87
2019-03-12T00:41:58.024Z,99091.48
2019-03-12T00:44:29.594Z,99090.30
2019-03-12T00:47:04.043Z,99087.03
2019-03-12T00:49:41.804Z,99082.38
2019-03-12T00:52:18.628Z,99085.91
2019-03-12T00:54:50.202Z,99080.78
2019-03-12T00:57:24.774Z,99083.78
2019-03-12T00:59:59.175Z,99088.39
2019-03-12T01:02:30.709Z,99080.70
2019-03-12T01:05:05.215Z,99082.11
2019-03-12T01:07:39.545Z,99080.56
2019-03-12T01:10:18.389Z,99084.23
2019-03-12T01:12:49.930Z,99084.44
2019-03-12T01:15:23.189Z,99096.35
2019-03-12T01:17:54.735Z,99102.11
2019-03-12T01:20:28.717Z,99095.27
2019-03-12T01:23:01.230Z,99097.85
2019-03-12T01:25:34.299Z,99101.05
2019-03-12T01:28:05.834Z,99095.37
2019-03-12T01:30:40.440Z,99096.05
2019-03-12T01:33:11.981Z,99100.77
2019-03-12T01:35:46.002Z,99101.13
2019-03-12T01:38:17.623Z,99095.69
2019-03-12T01:40:53.987Z,99093.51
2019-03-12T01:43:28.334Z,99104.44
2019-03-12T01:46:02.630Z,99105.16
2019-03-12T01:48:38.294Z,99101.84
2019-03-12T01:51:11.578Z,99103.50
2019-03-12T01:53:45.008Z,99103.84
2019-03-12T01:56:21.463Z,99106.91
2019-03-12T01:58:56.207Z,99113.49
2019-03-12T02:01:31.582Z,99113.49
2019-03-12T02:04:03.146Z,99116.64
2019-03-12T02:06:34.707Z,99112.76
2019-03-12T02:09:09.348Z,99111.00
2019-03-12T02:11:47.722Z,99115.75
2019-03-12T02:14:29.092Z,99116.54
2019-03-12T02:17:02.664Z,99115.66
2019-03-12T02:19:36.047Z,99116.08
2019-03-12T02:22:11.355Z,99109.28
2019-03-12T02:24:52.161Z,99113.22
2019-03-12T02:27:16.450Z,99109.81
2019-03-12T02:29:52.415Z,99113.00
2019-03-12T02:32:22.744Z,99122.56
2019-03-12T02:34:59.125Z,99104.51
2019-03-12T02:37:30.949Z,99103.12
2019-03-12T02:40:05.994Z,99110.11
2019-03-12T02:42:37.531Z,99112.73
2019-03-12T02:45:09.219Z,99115.84
2019-03-12T02:47:41.046Z,99116.63
2019-03-12T02:50:13.264Z,99118.27
2019-03-12T02:52:45.038Z,99113.16
2019-03-12T02:55:16.951Z,99105.70
2019-03-12T02:57:51.966Z,99106.48
2019-03-12T03:00:25.570Z,99105.09
2019-03-12T03:02:57.097Z,99102.51
2019-03-12T03:05:28.934Z,99108.37
2019-03-12T03:08:03.493Z,99105.41
2019-03-12T03:10:37.414Z,99103.50
2019-03-12T03:13:08.954Z,99100.08
2019-03-12T03:15:44.203Z,99103.84
2019-03-12T03:18:18.578Z,99101.20
2019-03-12T03:20:50.354Z,99110.59
2019-03-12T03:23:24.995Z,99105.97
2019-03-12T03:25:56.556Z,99114.09
2019-03-12T03:28:28.363Z,99113.12
2019-03-12T03:30:59.937Z,99118.71
2019-03-12T03:33:31.549Z,99116.68
2019-03-12T03:36:03.413Z,99118.40
2019-03-12T03:38:34.942Z,99121.04
2019-03-12T03:41:07.920Z,99113.28
2019-03-12T03:43:41.465Z,99115.86
2019-03-12T03:46:16.537Z,99112.48
2019-03-12T03:48:48.128Z,99109.19
2019-03-12T03:51:19.956Z,99112.70
2019-03-12T03:53:51.771Z,99104.31
2019-03-12T03:56:23.588Z,99102.25
2019-03-12T03:58:55.119Z,99110.86
2019-03-12T04:01:26.707Z,99109.38
2019-03-12T04:03:58.261Z,99109.16
2019-03-12T04:06:33.843Z,99108.75
2019-03-12T04:09:04.726Z,99107.91
2019-03-12T04:11:36.794Z,99109.03
2019-03-12T04:14:08.610Z,99111.43
2019-03-12T04:16:41.487Z,99111.34
2019-03-12T04:19:13.306Z,99112.81
2019-03-12T04:21:45.155Z,99121.03
2019-03-12T04:24:17.001Z,99118.40
2019-03-12T04:26:51.608Z,99111.15
2019-03-12T04:29:23.443Z,99116.78
2019-03-12T04:31:55.264Z,99106.63
2019-03-12T04:34:38.124Z,99104.50
2019-03-12T04:37:09.953Z,99100.63
2019-03-12T04:39:41.792Z,99103.13
2019-03-12T04:42:13.325Z,99096.43
2019-03-12T04:44:45.152Z,99090.52
2019-03-12T04:47:16.966Z,99088.64
2019-03-12T04:49:48.876Z,99086.96
2019-03-12T04:52:20.695Z,99083.13
2019-03-12T04:54:52.519Z,99088.30
2019-03-12T04:57:25.114Z,99078.94
2019-03-12T04:59:56.948Z,99088.39
2019-03-12T05:02:28.773Z,99089.55
2019-03-12T05:05:00.578Z,99089.41
2019-03-12T05:07:32.121Z,99088.30
2019-03-12T05:10:04.342Z,99087.19
2019-03-12T05:12:36.150Z,99082.22
2019-03-12T05:15:11.913Z,99083.18
2019-03-12T05:17:44.587Z,99078.57
2019-03-12T05:20:16.500Z,99077.38
2019-03-12T05:22:48.313Z,99076.03
2019-03-12T05:25:19.871Z,99078.84
2019-03-12T05:27:55.052Z,99073.95
2019-03-12T05:30:26.618Z,99070.36
2019-03-12T05:32:58.136Z,99061.64
2019-03-12T05:35:29.967Z,99064.54
2019-03-12T05:38:03.932Z,99068.74
2019-03-12T05:40:35.762Z,99064.82
2019-03-12T05:43:07.321Z,99069.34
2019-03-12T05:45:39.163Z,99066.44
2019-03-12T05:48:10.733Z,99059.61
2019-03-12T05:50:42.245Z,99052.03
2019-03-12T05:53:15.493Z,99056.61
2019-03-12T05:55:48.495Z,99050.75
2019-03-12T05:58:20.327Z,99049.09
2019-03-12T06:00:52.147Z,99048.80
2019-03-12T06:03:24.070Z,99051.56
2019-03-12T06:05:55.896Z,99054.06
2019-03-12T06:08:27.734Z,99055.17
2019-03-12T06:10:59.632Z,99050.84
2019-03-12T06:13:31.190Z,99051.20
2019-03-12T06:16:02.990Z,99051.20
2019-03-12T06:18:34.827Z,99051.97
2019-03-12T06:21:07.728Z,99048.98
2019-03-12T06:23:39.573Z,99053.25
2019-03-12T06:26:13.180Z,99047.34
2019-03-12T06:28:45.015Z,99046.57
2019-03-12T06:31:34.355Z,99049.34
2019-03-12T06:34:31.101Z,99040.56
2019-03-12T06:37:19.638Z,99045.81
2019-03-12T06:40:38.833Z,99042.19
2019-03-12T06:43:29.194Z,99034.08
2019-03-12T06:46:28.866Z,99035.97
2019-03-12T06:49:04.897Z,99038.63
2019-03-12T06:51:55.341Z,99042.36
2019-03-12T06:54:49.861Z,99034.81
2019-03-12T06:57:46.428Z,99031.16
2019-03-12T07:00:46.133Z,99034.83
2019-03-12T07:03:51.714Z,99030.50
2019-03-12T07:06:32.087Z,99025.57
2019-03-12T07:09:14.140Z,99024.75
2019-03-12T07:12:13.479Z,99021.89
2019-03-12T07:14:54.322Z,99018.31
2019-03-12T07:17:50.665Z,99021.78
2019-03-12T07:20:56.216Z,99015.10
2019-03-12T07:23:45.522Z,99009.64
2019-03-12T07:26:51.078Z,99004.08
2019-03-12T07:29:33.455Z,99004.88
2019-03-12T07:32:39.000Z,98999.53
2019-03-12T07:35:47.549Z,98997.57
2019-03-12T07:38:45.359Z,98995.49
2019-03-12T07:41:41.883Z,98992.81
2019-03-12T07:44:24.523Z,98988.20
2019-03-12T07:47:35.635Z,98987.13
2019-03-12T07:50:33.825Z,98982.67
2019-03-12T07:53:30.830Z,98974.43
2019-03-12T07:56:20.605Z,98974.92
2019-03-12T07:59:15.631Z,98978.20
2019-03-12T08:02:04.894Z,98975.16
2019-03-12T08:04:53.937Z,98969.70
2019-03-12T08:07:45.507Z,98968.50
2019-03-12T08:10:39.594Z,98961.71
2019-03-12T08:13:34.650Z,98961.16
2019-03-12T08:16:36.486Z,98945.45
2019-03-12T08:19:19.677Z,98946.95
2019-03-12T08:22:13.117Z,98929.98
2019-03-12T08:25:06.354Z,98928.80
2019-03-12T08:27:54.073Z,98929.36
2019-03-12T08:30:40.498Z,98921.00
2019-03-12T08:33:35.207Z,98914.88
2019-03-12T08:36:16.886Z,98910.66
2019-03-12T08:39:10.088Z,98908.36
2019-03-12T08:41:49.980Z,98907.73
2019-03-12T08:44:49.598Z,98896.39
2019-03-12T08:47:58.242Z,98895.56
2019-03-12T08:50:40.169Z,98885.77
2019-03-12T08:53:39.151Z,98888.59
2019-03-12T08:56:32.990Z,98876.60
2019-03-12T08:59:24.805Z,98871.92
2019-03-12T09:02:27.658Z,98867.41
2019-03-12T09:05:19.181Z,98866.41
2019-03-12T09:08:08.568Z,98860.38
2019-03-12T09:11:05.921Z,98856.02
2019-03-12T09:14:08.419Z,98852.37
2019-03-12T09:16:57.729Z,98855.96
2019-03-12T09:19:44.223Z,98847.22
2019-03-12T09:22:34.669Z,98844.15
2019-03-12T09:25:29.205Z,98840.09
2019-03-12T09:28:18.820Z,98833.20
2019-03-12T09:31:22.029Z,98832.26
2019-03-12T09:34:14.315Z,98822.30
2019-03-12T09:37:04.133Z,98812.14
2019-03-12T09:39:57.542Z,98816.65
2019-03-12T09:42:43.671Z,98806.23
2019-03-12T09:45:33.225Z,98809.30
2019-03-12T09:48:31.707Z,98811.23
2019-03-12T09:51:27.969Z,98797.55
2019-03-12T09:54:17.370Z,98794.71
2019-03-12T09:57:09.121Z,98781.47
2019-03-12T10:00:00.611Z,98772.99
2019-03-12T10:02:42.840Z,98770.84
2019-03-12T10:05:36.158Z,98764.77
2019-03-12T10:08:35.712Z,98758.24
2019-03-12T10:11:41.699Z,98752.06
2019-03-12T10:14:37.692Z,98746.55
2019-03-12T10:17:47.562Z,98736.92
2019-03-12T10:20:39.588Z,98732.55
2019-03-12T10:23:29.832Z,98732.19
2019-03-12T10:26:38.349Z,98723.81
2019-03-12T10:29:38.100Z,98718.80
2019-03-12T10:32:25.864Z,98713.58
2019-03-12T10:35:04.060Z,98704.44
2019-03-12T10:37:54.806Z,98705.25
2019-03-12T10:41:05.708Z,98700.63
2019-03-12T10:43:42.182Z,98695.19
2019-03-12T10:46:39.893Z,98691.09
2019-03-12T10:49:16.914Z,98680.66
2019-03-12T10:51:48.745Z,98676.92
2019-03-12T10:54:23.350Z,98665.09
2019-03-12T10:56:59.676Z,98667.42
2019-03-12T10:59:33.031Z,98667.23
2019-03-12T11:02:06.280Z,98658.20
2019-03-12T11:04:37.968Z,98655.06
2019-03-12T11:07:16.504Z,98651.61
2019-03-12T11:09:50.353Z,98641.27
2019-03-12T11:12:24.247Z,98651.27
2019-03-12T11:14:55.864Z,98635.13
2019-03-12T11:17:29.652Z,98636.91
2019-03-12T11:20:09.733Z,98621.09
2019-03-12T11:22:43.262Z,98617.78
2019-03-12T11:25:27.200Z,98608.44
2019-03-12T11:27:50.958Z,98598.19
2019-03-12T11:30:22.660Z,98582.82
2019-03-12T11:32:54.291Z,98581.02
2019-03-12T11:35:25.969Z,98580.59
2019-03-12T11:37:57.553Z,98573.95
2019-03-12T11:40:32.592Z,98569.86
2019-03-12T11:43:05.795Z,98561.89
2019-03-12T11:45:38.354Z,98559.38
2019-03-12T11:48:15.361Z,98558.39
2019-03-12T11:50:55.258Z,98552.44
2019-03-12T11:53:28.822Z,98545.65
2019-03-12T11:56:08.940Z,98543.94
2019-03-12T11:58:40.665Z,98529.00
2019-03-12T12:01:12.468Z,98533.36
2019-03-12T12:03:46.086Z,98525.53
2019-03-12T12:06:19.883Z,98516.36
2019-03-12T12:08:51.545Z,98516.15
2019-03-12T12:11:28.045Z,98506.89
2019-03-12T12:13:59.596Z,98501.97
2019-03-12T12:16:34.616Z,98487.34
2019-03-12T12:19:06.313Z,98479.70
2019-03-12T12:21:40.691Z,98472.88
2019-03-12T12:24:15.071Z,98458.28
2019-03-12T12:26:47.784Z,98459.97
2019-03-12T12:29:23.169Z,98441.20
2019-03-12T12:31:56.396Z,98435.09
2019-03-12T12:34:27.981Z,98417.97
2019-03-12T12:37:03.270Z,98413.25
2019-03-12T12:39:38.513Z,98401.19
2019-03-12T12:42:11.769Z,98397.48
2019-03-12T12:44:43.369Z,98388.30
2019-03-12T12:47:15.058Z,98368.30
2019-03-12T12:49:49.915Z,98357.02
2019-03-12T12:52:21.601Z,98360.62
2019-03-12T12:54:53.190Z,98355.91
2019-03-12T12:57:26.633Z,98342.27
2019-03-12T13:00:00.981Z,98329.45
2019-03-12T13:02:37.836Z,98326.55
2019-03-12T13:05:11.891Z,98320.12
2019-03-12T13:07:46.199Z,98317.40
2019-03-12T13:10:23.621Z,98317.73
2019-03-12T13:12:55.288Z,98308.31
2019-03-12T13:15:29.359Z,98301.39
2019-03-12T13:18:00.992Z,98296.97
2019-03-12T13:20:35.631Z,98283.25
2019-03-12T13:23:15.579Z,98270.06
2019-03-12T13:25:47.199Z,98265.33
2019-03-12T13:28:22.867Z,98273.38
2019-03-12T13:30:54.353Z,98266.74
2019-03-12T13:33:36.379Z,98257.38
2019-03-12T13:36:14.205Z,98256.83
2019-03-12T13:38:51.992Z,98245.23
2019-03-12T13:41:24.565Z,98243.17
2019-03-12T13:43:58.988Z,98236.84
2019-03-12T13:46:33.413Z,98240.50
2019-03-12T13:49:06.787Z,98230.91
2019-03-12T13:51:38.435Z,98222.48
2019-03-12T13:54:15.253Z,98221.38
2019-03-12T13:56:50.073Z,98212.28
2019-03-12T13:59:22.841Z,98206.30
2019-03-12T14:01:57.518Z,98199.17
2019-03-12T14:04:35.267Z,98184.74
2019-03-12T14:07:06.992Z,98184.64
2019-03-12T14:09:38.613Z,98178.04
2019-03-12T14:12:10.213Z,98177.12
2019-03-12T14:14:44.976Z,98166.84
2019-03-12T14:17:17.827Z,98152.59
2019-03-12T14:19:55.256Z,98147.30
2019-03-12T14:22:28.366Z,98133.20
2019-03-12T14:24:59.975Z,98133.63
2019-03-12T14:27:34.812Z,98121.75
2019-03-12T14:30:12.267Z,98115.70
2019-03-12T14:32:43.843Z,98108.72
2019-03-12T14:35:19.324Z,98109.13
2019-03-12T14:37:52.397Z,98104.98
2019-03-12T14:40:27.354Z,98098.87
2019-03-12T14:43:02.297Z,98088.37
2019-03-12T14:45:38.262Z,98079.83
2019-03-12T14:48:38.629Z,98069.34
2019-03-12T14:51:59.251Z,98062.12
2019-03-12T14:54:33.942Z,98050.85
2019-03-12T14:57:06.622Z,98044.47
2019-03-12T14:59:38.243Z,98038.52
2019-03-12T15:02:11.881Z,98030.29
2019-03-12T15:04:46.177Z,98024.98
2019-03-12T15:07:17.890Z,98010.63
2019-03-12T15:09:54.303Z,98005.27
2019-03-12T15:12:27.606Z,98000.03
2019-03-12T15:14:59.236Z,97993.86
2019-03-12T15:17:35.813Z,97986.38
2019-03-12T15:20:12.642Z,97977.20
2019-03-12T15:22:44.230Z,97967.09
2019-03-12T15:25:18.700Z,97959.14
2019-03-12T15:27:53.278Z,97957.13
2019-03-12T15:30:27.364Z,97947.42
2019-03-12T15:32:58.949Z,97939.67
2019-03-12T15:35:39.870Z,97926.48
2019-03-12T15:38:11.463Z,97919.95
2019-03-12T15:40:43.046Z,97913.16
2019-03-12T15:43:14.633Z,97909.27
2019-03-12T15:45:46.282Z,97899.75
2019-03-12T15:48:21.528Z,97890.25
2019-03-12T15:50:51.150Z,97883.83
2019-03-12T15:53:22.727Z,97877.65
2019-03-12T15:55:56.707Z,97876.45
2019-03-12T15:58:29.225Z,97870.03
2019-03-12T16:01:02.778Z,97864.47
2019-03-12T16:03:34.053Z,97866.59
2019-03-12T16:06:05.667Z,97846.98
2019-03-12T16:08:38.767Z,97840.11
2019-03-12T16:11:10.460Z,97837.86
2019-03-12T16:13:42.150Z,97837.14
2019-03-12T16:16:18.459Z,97821.59
2019-03-12T16:18:53.873Z,97818.86
2019-03-12T16:21:25.893Z,97814.34
2019-03-12T16:23:57.847Z,97805.93
2019-03-12T16:26:29.473Z,97796.19
2019-03-12T16:29:02.424Z,97797.26
2019-03-12T16:31:34.151Z,97793.80
2019-03-12T16:34:05.810Z,97788.70
2019-03-12T16:36:37.478Z,97787.94
2019-03-12T16:39:09.646Z,97777.05
2019-03-12T16:41:42.558Z,97776.58
2019-03-12T16:44:14.152Z,97774.22
2019-03-12T16:46:45.811Z,97760.81
2019-03-12T16:49:17.622Z,97759.39
2019-03-12T16:51:50.845Z,97743.55
2019-03-12T16:54:22.531Z,97743.89
2019-03-12T16:56:56.940Z,97738.58
2019-03-12T16:59:28.516Z,97731.81
2019-03-12T17:02:04.594Z,97733.36
2019-03-12T17:04:39.531Z,97727.53
2019-03-12T17:07:11.178Z,97721.45
2019-03-12T17:09:42.830Z,97713.53
2019-03-12T17:12:14.455Z,97701.30
2019-03-12T17:14:46.048Z,97692.40
2019-03-12T17:17:17.658Z,97689.42
2019-03-12T17:19:49.273Z,97678.28
2019-03-12T17:22:22.429Z,97673.88
2019-03-12T17:24:54.013Z,97674.48
2019-03-12T17:27:25.643Z,97667.14
2019-03-12T17:30:01.049Z,97659.53
2019-03-12T17:32:34.282Z,97653.84
2019-03-12T17:35:11.053Z,97645.16
2019-03-12T17:37:42.959Z,97645.30
2019-03-12T17:40:19.503Z,97636.28
2019-03-12T17:42:52.643Z,97629.41
2019-03-12T17:45:28.637Z,97625.50
2019-03-12T17:48:01.376Z,97624.88
2019-03-12T17:50:32.970Z,97624.16
2019-03-12T17:53:07.145Z,97618.84
2019-03-12T17:55:39.978Z,97616.23
2019-03-12T17:58:11.582Z,97605.44
2019-03-12T18:00:44.922Z,97601.89
2019-03-12T18:03:16.511Z,97597.36
2019-03-12T18:05:48.140Z,97582.80
2019-03-12T18:08:19.755Z,97581.50
2019-03-12T18:10:51.482Z,97572.82
2019-03-12T18:13:29.122Z,97567.48
2019-03-12T18:16:00.705Z,97567.85
2019-03-12T18:18:34.004Z,97554.45
2019-03-12T18:21:05.838Z,97553.36
2019-03-12T18:23:37.632Z,97541.41
2019-03-12T18:26:31.528Z,97542.58
2019-03-12T18:29:02.840Z,97534.62
2019-03-12T18:31:34.424Z,97538.19
2019-03-12T18:34:06.681Z,97536.41
2019-03-12T18:36:41.062Z,97538.06
2019-03-12T18:39:19.050Z,97540.55
2019-03-12T18:41:50.776Z,97522.45
2019-03-12T18:44:25.583Z,97529.55
2019-03-12T18:46:57.159Z,97530.03
2019-03-12T18:49:28.768Z,97521.48
2019-03-12T18:52:01.983Z,97514.41
2019-03-12T18:54:46.644Z,97523.41
2019-03-12T18:57:18.383Z,97524.11
2019-03-12T18:59:54.330Z,97521.87
2019-03-12T19:02:33.429Z,97510.25
2019-03-12T19:05:07.666Z,97504.47
2019-03-12T19:07:43.631Z,97493.91
2019-03-12T19:10:17.056Z,97490.00
2019-03-12T19:12:54.265Z,97491.41
2019-03-12T19:15:25.863Z,97489.05
2019-03-12T19:17:58.910Z,97478.87
2019-03-12T19:20:33.054Z,97470.80
2019-03-12T19:23:03.916Z,97463.80
2019-03-12T19:25:38.298Z,97453.52
2019-03-12T19:28:11.924Z,97442.85
2019-03-12T19:30:46.559Z,97441.30
2019-03-12T19:33:20.007Z,97429.93
2019-03-12T19:35:54.257Z,97426.75
2019-03-12T19:38:28.998Z,97427.23
2019-03-12T19:41:10.680Z,97423.32
2019-03-12T19:43:47.160Z,97433.26
2019-03-12T19:46:23.593Z,97422.97
2019-03-12T19:48:55.307Z,97409.58
2019-03-12T19:51:28.977Z,97407.30
2019-03-12T19:54:00.619Z,97406.00
2019-03-12T19:56:33.400Z,97409.22
2019-03-12T19:59:05.032Z,97401.62
2019-03-12T20:01:40.042Z,97400.67
2019-03-12T20:04:11.630Z,97401.86
2019-03-12T20:06:52.265Z,97398.65
2019-03-12T20:10:15.625Z,97386.23
2019-03-12T20:13:48.984Z,97385.14
2019-03-12T20:17:33.956Z,97374.59
2019-03-12T20:21:07.620Z,97362.65
2019-03-12T20:24:57.509Z,97353.52
2019-03-12T20:28:50.609Z,97349.86
2019-03-12T20:32:30.668Z,97331.86
2019-03-12T20:36:13.337Z,97314.59
2019-03-12T20:40:02.125Z,97312.80
2019-03-12T20:43:46.375Z,97285.47
2019-03-12T20:47:44.654Z,97286.08
2019-03-12T20:51:14.196Z,97275.38
2019-03-12T20:54:51.122Z,97266.38
2019-03-12T20:58:23.452Z,97249.45
2019-03-12T21:01:57.238Z,97249.33
2019-03-12T21:05:42.578Z,97234.42
2019-03-12T21:09:16.345Z,97222.50
2019-03-12T21:12:50.614Z,97211.83
2019-03-12T21:16:24.282Z,97208.61
2019-03-12T21:20:00.739Z,97194.59
2019-03-12T21:23:16.949Z,97185.29
2019-03-12T21:27:21.457Z,97175.43
2019-03-12T21:29:56.064Z,97168.53
2019-03-12T21:32:27.838Z,97160.90
2019-03-12T21:35:01.268Z,97153.55
2019-03-12T21:37:35.098Z,97149.14
2019-03-12T21:40:09.096Z,97145.92
2019-03-12T21:42:40.724Z,97142.47
2019-03-12T21:45:16.938Z,97134.85
2019-03-12T21:47:48.584Z,97129.73
2019-03-12T21:50:24.159Z,97133.03
2019-03-12T21:52:56.813Z,97127.48
2019-03-12T21:55:28.562Z,97126.90
2019-03-12T21:58:00.196Z,97117.52
2019-03-12T22:00:34.430Z,97112.04
2019-03-12T22:03:06.063Z,97112.14
2019-03-12T22:05:43.787Z,97104.48
2019-03-12T22:08:16.891Z,97094.63
2019-03-12T22:10:52.046Z,97089.31
2019-03-12T22:13:23.708Z,97077.45
2019-03-12T22:15:58.156Z,97073.90
2019-03-12T22:18:29.794Z,97075.47
2019-03-12T22:21:01.421Z,97066.80
2019-03-12T22:23:43.032Z,97074.30
2019-03-12T22:26:16.208Z,97067.64
2019-03-12T22:28:49.837Z,97066.11
2019-03-12T22:31:21.498Z,97073.28
2019-03-12T22:33:53.175Z,97063.34
2019-03-12T22:36:24.782Z,97056.42
2019-03-12T22:39:00.921Z,97054.89
2019-03-12T22:41:34.193Z,97053.69
2019-03-12T22:44:05.793Z,97037.66
2019-03-12T22:46:38.961Z,97044.82
2019-03-12T22:49:10.841Z,97041.95
2019-03-12T22:51:42.419Z,97032.17
2019-03-12T22:54:15.639Z,97033.34
2019-03-12T22:56:47.498Z,97035.11
2019-03-12T22:59:20.808Z,97029.56
2019-03-12T23:02:10.398Z,97037.13
2019-03-12T23:05:01.341Z,97029.23
2019-03-12T23:07:50.943Z,97028.27
2019-03-12T23:10:25.341Z,97032.50
2019-03-12T23:12:57.507Z,97044.76
2019-03-12T23:15:31.638Z,97054.86
2019-03-12T23:18:05.269Z,97059.45
2019-03-12T23:20:38.957Z,97059.81
2019-03-12T23:23:10.540Z,97059.45
2019-03-12T23:25:42.258Z,97063.14
2019-03-12T23:28:16.228Z,97063.38
2019-03-12T23:30:47.812Z,97064.77
2019-03-12T23:33:19.404Z,97070.05
2019-03-12T23:35:52.876Z,97070.28
2019-03-12T23:38:32.311Z,97077.03
2019-03-12T23:41:06.973Z,97083.58
2019-03-12T23:43:38.658Z,97079.80
2019-03-12T23:46:15.815Z,97093.27
2019-03-12T23:48:48.951Z,97101.51
2019-03-12T23:51:20.509Z,97110.05
2019-03-12T23:53:54.951Z,97114.75
2019-03-12T23:56:26.519Z,97127.44
2019-03-12T23:58:58.131Z,97129.91
